Maria Dos Anxos — ECCL — position and weather

sailwx.info

Track history (hours):
 
Tides and Currents Weather Stations Pressure Air Temp Water Temp Dewpoint Dewpoint Depression Visibility Wind Speed Wind Dir Waves Ship Positions

Maria Dos Anxos

Last reported at 2017-Apr-13 05:31 UTC. Time now 2017-Aug-19 01:57 UTC.
Position N 43°38' W 005°22'.
Warning: this ship's position is months out of date.

Length 30 m; draft 4 m.

Type: Fishing. MMSI: 224081150.

Date/timePositionNaut miles runAvg speedWind from/ knotsBaromVisibWave heightAir tempDewpointWater temp
2017-Apr-13 05:31N 43°38' W 005°22'0 2.0
2017-Apr-13 05:30N 43°38' W 005°23'6 7.1
2017-Apr-13 04:35N 43°36' W 005°31'1 8.0
2017-Apr-13 04:28N 43°36' W 005°32'4 8.0
2017-Apr-13 04:00N 43°35' W 005°37'4 7.2
2017-Apr-13 03:30N 43°33' W 005°42'0 0.1
2017-Apr-13 03:00N 43°33' W 005°42'0 0.0
2017-Apr-13 02:30N 43°33' W 005°42'0 0.0
2017-Apr-13 02:00N 43°33' W 005°42'0 0.0
2017-Apr-13 01:30N 43°33' W 005°42'0 0.0
2017-Apr-13 01:00N 43°33' W 005°42'0 0.0
2017-Apr-13 00:30N 43°33' W 005°42'0 0.0
2017-Apr-13 00:00N 43°33' W 005°42'0 0.0
2017-Apr-12 23:30N 43°33' W 005°42'0 0.0
2017-Apr-12 22:57N 43°33' W 005°42'0 0.0
2017-Apr-12 22:30N 43°33' W 005°42'0 0.0
2017-Apr-12 22:00N 43°33' W 005°42'0 0.0
2017-Apr-12 20:42N 43°33' W 005°42'0 0.0
2017-Apr-12 20:30N 43°33' W 005°42'0 0.0
2017-Apr-12 20:00N 43°33' W 005°42'0 0.0
2017-Apr-12 19:30N 43°33' W 005°42'0 0.0
2017-Apr-12 19:00N 43°33' W 005°42'0 0.0
2017-Apr-12 18:30N 43°33' W 005°42'0 0.0
2017-Apr-12 18:00N 43°33' W 005°42'0 0.0
2017-Apr-12 17:30N 43°33' W 005°42'0 0.0
2017-Apr-12 17:00N 43°33' W 005°42'0 0.0
2017-Apr-12 16:30N 43°33' W 005°42'0 0.0
2017-Apr-12 15:59N 43°33' W 005°42'0 0.0
2017-Apr-12 15:30N 43°33' W 005°42'0 0.0
2017-Apr-12 15:00N 43°33' W 005°42'0 0.0
2017-Apr-12 14:30N 43°33' W 005°42'0 0.0
2017-Apr-12 13:29N 43°33' W 005°42'0 0.0
2017-Apr-12 12:59N 43°33' W 005°42'0 0.0
2017-Apr-12 12:30N 43°33' W 005°42'0 0.1
2017-Apr-12 11:23N 43°33' W 005°42'0 0.1
2017-Apr-12 11:00N 43°33' W 005°42'3 5.5
2017-Apr-12 10:29N 43°35' W 005°38'9 2.9
2017-Apr-12 07:18N 43°39' W 005°27'1 0.7
2017-Apr-12 05:23N 43°37' W 005°26'3 6.5
2017-Apr-12 04:54N 43°36' W 005°31'3 6.5
2017-Apr-12 04:31N 43°35' W 005°34'3 6.6
2017-Apr-12 04:00N 43°34' W 005°38'3 5.6
2017-Apr-12 03:30N 43°33' W 005°42'0 0.0
2017-Apr-12 03:00N 43°33' W 005°42'0 0.0
2017-Apr-12 02:30N 43°33' W 005°42'0 0.0
2017-Apr-12 02:00N 43°33' W 005°42'0 0.0
2017-Apr-12 01:30N 43°33' W 005°42'0 0.0
2017-Apr-12 00:59N 43°33' W 005°42'0 0.0
2017-Apr-12 00:30N 43°33' W 005°42'0 0.0
2017-Apr-12 00:00N 43°33' W 005°42'0 0.0
2017-Apr-11 23:29N 43°33' W 005°42'0 0.0
2017-Apr-11 23:00N 43°33' W 005°42'0 0.0
2017-Apr-11 22:30N 43°33' W 005°42'0 0.0
2017-Apr-11 22:00N 43°33' W 005°42'0 0.0
2017-Apr-11 20:29N 43°33' W 005°42'0 0.0
2017-Apr-11 20:00N 43°33' W 005°42'0 0.0
2017-Apr-11 19:30N 43°33' W 005°42'0 0.0
2017-Apr-11 19:00N 43°33' W 005°42'0 0.0
2017-Apr-11 18:30N 43°33' W 005°42'0 0.0
2017-Apr-11 17:59N 43°33' W 005°42'0 0.0
2017-Apr-11 17:28N 43°33' W 005°42'0 0.0
2017-Apr-11 17:00N 43°33' W 005°42'0 0.0
2017-Apr-11 16:28N 43°33' W 005°42'0 0.0
2017-Apr-11 12:30N 43°33' W 005°42'14 2.6
2017-Apr-11 07:08N 43°38' W 005°24'1 1.0
2017-Apr-11 05:51N 43°38' W 005°22'2 5.8
2017-Apr-11 05:29N 43°37' W 005°25'3 6.6
2017-Apr-11 04:58N 43°36' W 005°30'3 6.5
2017-Apr-11 04:26N 43°35' W 005°34'3 6.5
2017-Apr-11 04:01N 43°34' W 005°38'3 6.1
2017-Apr-11 03:30N 43°33' W 005°42'0 0.0
2017-Apr-11 03:00N 43°33' W 005°42'0 0.0
2017-Apr-11 02:30N 43°33' W 005°42'0 0.0
2017-Apr-11 02:00N 43°33' W 005°42'0 0.0
2017-Apr-11 01:30N 43°33' W 005°42'0 0.0
2017-Apr-11 01:00N 43°33' W 005°42'0 0.0
2017-Apr-11 00:30N 43°33' W 005°42'0 0.0
2017-Apr-11 00:00N 43°33' W 005°42'0 0.0
2017-Apr-10 22:04N 43°33' W 005°42'0 0.0
2017-Apr-10 21:45N 43°33' W 005°42'0 0.0
2017-Apr-10 21:05N 43°33' W 005°42'0 0.0
2017-Apr-10 20:55N 43°33' W 005°42'0 0.0
2017-Apr-10 20:30N 43°33' W 005°42'0 0.0
2017-Apr-10 20:00N 43°33' W 005°42'0 0.0
2017-Apr-10 19:30N 43°33' W 005°42'0 0.0
2017-Apr-10 19:00N 43°33' W 005°42'0 0.1
2017-Apr-10 18:02N 43°33' W 005°42'0 0.0
2017-Apr-10 17:33N 43°33' W 005°42'0 0.0
2017-Apr-10 17:28N 43°33' W 005°42'3 5.6
2017-Apr-10 16:59N 43°36' W 005°42'5 9.2
2017-Apr-10 16:27N 43°39' W 005°47'  
2017-Apr-07 07:41N 43°37' W 005°24'2 0.7
2017-Apr-07 05:10N 43°38' W 005°26'3 7.5
2017-Apr-07 04:49N 43°37' W 005°29'2 7.5
2017-Apr-07 04:30N 43°36' W 005°32'4 7.4
2017-Apr-07 04:00N 43°35' W 005°37'4 7.2
2017-Apr-07 03:30N 43°33' W 005°42'0 0.2
2017-Apr-07 03:00N 43°33' W 005°42'0 0.0
2017-Apr-07 02:30N 43°33' W 005°42'0 0.0
2017-Apr-07 02:00N 43°33' W 005°42'0 0.0
2017-Apr-07 01:30N 43°33' W 005°42'0 0.0
2017-Apr-07 01:00N 43°33' W 005°42'0 0.0
2017-Apr-07 00:30N 43°33' W 005°42'0 0.0
2017-Apr-07 00:00N 43°33' W 005°42'0 0.0
2017-Apr-06 23:26N 43°33' W 005°42'0 0.0
2017-Apr-06 23:00N 43°33' W 005°42'0 0.0
2017-Apr-06 22:30N 43°33' W 005°42'0 0.0
2017-Apr-06 22:00N 43°33' W 005°42'0 0.0
2017-Apr-06 20:35N 43°33' W 005°42'0 0.0
2017-Apr-06 20:30N 43°33' W 005°42'0 0.0
2017-Apr-06 20:00N 43°33' W 005°42'0 0.0
2017-Apr-06 19:27N 43°33' W 005°42'0 0.0
2017-Apr-06 19:00N 43°33' W 005°42'0 0.0
2017-Apr-06 18:30N 43°33' W 005°42'0 0.0
2017-Apr-06 18:00N 43°33' W 005°42'0 0.0
2017-Apr-06 17:29N 43°33' W 005°42'0 0.0
2017-Apr-06 16:57N 43°33' W 005°42'0 0.0
2017-Apr-06 16:28N 43°33' W 005°42'0 0.0
2017-Apr-06 16:00N 43°33' W 005°42'0 0.0
2017-Apr-06 15:30N 43°33' W 005°42'0 0.0
2017-Apr-06 14:58N 43°33' W 005°42'0 0.0
2017-Apr-06 14:29N 43°33' W 005°42'0 0.0
2017-Apr-06 13:30N 43°33' W 005°42'0 0.2
2017-Apr-06 13:00N 43°33' W 005°42'0 0.0
2017-Apr-06 12:30N 43°33' W 005°42'0 0.0
2017-Apr-06 12:00N 43°33' W 005°42'0 0.0
2017-Apr-06 11:30N 43°33' W 005°42'13 3.3
2017-Apr-06 07:33N 43°39' W 005°25'3 1.2
2017-Apr-06 04:55N 43°37' W 005°29'3 7.4
2017-Apr-06 04:30N 43°36' W 005°33'4 7.1
2017-Apr-06 04:00N 43°35' W 005°38'3 6.6
2017-Apr-06 03:30N 43°33' W 005°42'0 0.1
2017-Apr-06 03:00N 43°33' W 005°42'0 0.0
2017-Apr-06 02:30N 43°33' W 005°42'0 0.0
2017-Apr-06 02:00N 43°33' W 005°42'0 0.0
2017-Apr-06 01:30N 43°33' W 005°42'0 0.0
2017-Apr-06 01:00N 43°33' W 005°42'0 0.0
2017-Apr-06 00:29N 43°33' W 005°42'0 0.0
2017-Apr-06 00:00N 43°33' W 005°42'0 0.0
2017-Apr-05 23:30N 43°33' W 005°42'0 0.0
2017-Apr-05 19:38N 43°33' W 005°42'0 0.0
2017-Apr-05 19:30N 43°33' W 005°42'0 0.0
2017-Apr-05 19:00N 43°33' W 005°42'0 0.0
2017-Apr-05 18:30N 43°33' W 005°42'0 0.0
2017-Apr-05 17:57N 43°33' W 005°42'0 0.0
2017-Apr-05 17:28N 43°33' W 005°42'0 0.0
2017-Apr-05 16:59N 43°33' W 005°42'0 0.0
2017-Apr-05 16:30N 43°33' W 005°42'0 0.0
2017-Apr-05 15:59N 43°33' W 005°42'0 0.0
2017-Apr-05 15:30N 43°33' W 005°42'0 0.0
2017-Apr-05 14:59N 43°33' W 005°42'0 0.0
2017-Apr-05 14:29N 43°33' W 005°42'0 0.0
2017-Apr-05 13:27N 43°33' W 005°42'0 0.0
2017-Apr-05 13:00N 43°33' W 005°42'13 3.7
2017-Apr-05 09:30N 43°38' W 005°25'0 0.1
2017-Apr-05 08:58N 43°38' W 005°25'0 0.3
2017-Apr-05 07:33N 43°39' W 005°25'0 1.2
2017-Apr-05 07:30N 43°39' W 005°25'2 0.7
2017-Apr-05 05:14N 43°37' W 005°26'3 8.0
2017-Apr-05 04:51N 43°36' W 005°30'3 7.7
2017-Apr-05 04:30N 43°36' W 005°33'4 7.6
2017-Apr-05 04:00N 43°34' W 005°38'3 5.7
2017-Apr-05 03:30N 43°33' W 005°42'0 0.0
2017-Apr-05 03:00N 43°33' W 005°42'0 0.0
2017-Apr-05 02:30N 43°33' W 005°42'0 0.0
2017-Apr-05 02:00N 43°33' W 005°42'0 0.0
2017-Apr-05 01:30N 43°33' W 005°42'0 0.0
2017-Apr-05 01:00N 43°33' W 005°42'0 0.0
2017-Apr-05 00:30N 43°33' W 005°42'0 0.0
2017-Apr-05 00:00N 43°33' W 005°42'0 0.0
2017-Apr-04 23:29N 43°33' W 005°42'0 0.0
2017-Apr-04 23:00N 43°33' W 005°42'0 0.0
2017-Apr-04 22:30N 43°33' W 005°42'0 0.0
2017-Apr-04 22:00N 43°33' W 005°42'0 0.0
2017-Apr-04 20:14N 43°33' W 005°42'0 0.0
2017-Apr-04 20:00N 43°33' W 005°42'0 0.0
2017-Apr-04 19:30N 43°33' W 005°42'0 0.0
2017-Apr-04 18:59N 43°33' W 005°42'0 0.0
2017-Apr-04 18:30N 43°33' W 005°42'0 0.0
2017-Apr-04 17:58N 43°33' W 005°42'0 0.0
2017-Apr-04 17:30N 43°33' W 005°42'0 0.0
2017-Apr-04 17:00N 43°33' W 005°42'0 0.0
2017-Apr-04 16:30N 43°33' W 005°42'0 0.2
2017-Apr-04 16:00N 43°33' W 005°42'0 0.0
2017-Apr-04 15:30N 43°33' W 005°42'0 0.0
2017-Apr-04 15:00N 43°33' W 005°42'13 2.5
2017-Apr-04 10:02N 43°39' W 005°26'0 0.3
2017-Apr-04 10:00N 43°39' W 005°26'0 0.3
2017-Apr-04 09:26N 43°39' W 005°27'2 3.9
2017-Apr-04 08:56N 43°40' W 005°29'4 1.2
2017-Apr-04 05:18N 43°38' W 005°24'2 8.0
2017-Apr-04 05:00N 43°37' W 005°27'4 7.9
2017-Apr-04 04:30N 43°36' W 005°33'4 7.8
2017-Apr-04 04:00N 43°35' W 005°38'3 6.0
2017-Apr-04 03:29N 43°33' W 005°42'0 0.0
2017-Apr-04 03:00N 43°33' W 005°42'0 0.0
2017-Apr-04 02:30N 43°33' W 005°42'0 0.0
2017-Apr-04 01:59N 43°33' W 005°42'0 0.0
2017-Apr-04 01:29N 43°33' W 005°42'0 0.0
2017-Apr-04 00:56N 43°33' W 005°42'0 0.0
2017-Apr-04 00:29N 43°33' W 005°42'0 0.0
2017-Apr-03 23:57N 43°33' W 005°42'0 0.0
2017-Apr-03 23:27N 43°33' W 005°42'0 0.0
2017-Apr-03 22:52N 43°33' W 005°42'0 0.0
2017-Apr-03 17:27N 43°33' W 005°42'0 0.0
2017-Apr-03 16:58N 43°33' W 005°42'16 1.7
2017-Apr-03 07:34N 43°41' W 005°22'  
Track history (hours):
 
Tides and Currents Weather Stations Pressure Air Temp Water Temp Dewpoint Dewpoint Depression Visibility Wind Speed Wind Dir Waves Ship Positions

Maria Dos Anxos

Last reported at 2017-Apr-13 05:31 UTC. Time now 2017-Aug-19 01:57 UTC.
Position N 43°38' W 005°22'.
Warning: this ship's position is months out of date.

Length 30 m; draft 4 m.

Type: Fishing. MMSI: 224081150.

Date/timePositionNaut miles runAvg speedWind from/ knotsBaromVisibWave heightAir tempDewpointWater temp
2017-Apr-13 05:31N 43°38' W 005°22'0 2.0
2017-Apr-13 05:30N 43°38' W 005°23'6 7.1
2017-Apr-13 04:35N 43°36' W 005°31'1 8.0
2017-Apr-13 04:28N 43°36' W 005°32'4 8.0
2017-Apr-13 04:00N 43°35' W 005°37'4 7.2
2017-Apr-13 03:30N 43°33' W 005°42'0 0.1
2017-Apr-13 03:00N 43°33' W 005°42'0 0.0
2017-Apr-13 02:30N 43°33' W 005°42'0 0.0
2017-Apr-13 02:00N 43°33' W 005°42'0 0.0
2017-Apr-13 01:30N 43°33' W 005°42'0 0.0
2017-Apr-13 01:00N 43°33' W 005°42'0 0.0
2017-Apr-13 00:30N 43°33' W 005°42'0 0.0
2017-Apr-13 00:00N 43°33' W 005°42'0 0.0
2017-Apr-12 23:30N 43°33' W 005°42'0 0.0
2017-Apr-12 22:57N 43°33' W 005°42'0 0.0
2017-Apr-12 22:30N 43°33' W 005°42'0 0.0
2017-Apr-12 22:00N 43°33' W 005°42'0 0.0
2017-Apr-12 20:42N 43°33' W 005°42'0 0.0
2017-Apr-12 20:30N 43°33' W 005°42'0 0.0
2017-Apr-12 20:00N 43°33' W 005°42'0 0.0
2017-Apr-12 19:30N 43°33' W 005°42'0 0.0
2017-Apr-12 19:00N 43°33' W 005°42'0 0.0
2017-Apr-12 18:30N 43°33' W 005°42'0 0.0
2017-Apr-12 18:00N 43°33' W 005°42'0 0.0
2017-Apr-12 17:30N 43°33' W 005°42'0 0.0
2017-Apr-12 17:00N 43°33' W 005°42'0 0.0
2017-Apr-12 16:30N 43°33' W 005°42'0 0.0
2017-Apr-12 15:59N 43°33' W 005°42'0 0.0
2017-Apr-12 15:30N 43°33' W 005°42'0 0.0
2017-Apr-12 15:00N 43°33' W 005°42'0 0.0
2017-Apr-12 14:30N 43°33' W 005°42'0 0.0
2017-Apr-12 13:29N 43°33' W 005°42'0 0.0
2017-Apr-12 12:59N 43°33' W 005°42'0 0.0
2017-Apr-12 12:30N 43°33' W 005°42'0 0.1
2017-Apr-12 11:23N 43°33' W 005°42'0 0.1
2017-Apr-12 11:00N 43°33' W 005°42'3 5.5
2017-Apr-12 10:29N 43°35' W 005°38'9 2.9
2017-Apr-12 07:18N 43°39' W 005°27'1 0.7
2017-Apr-12 05:23N 43°37' W 005°26'3 6.5
2017-Apr-12 04:54N 43°36' W 005°31'3 6.5
2017-Apr-12 04:31N 43°35' W 005°34'3 6.6
2017-Apr-12 04:00N 43°34' W 005°38'3 5.6
2017-Apr-12 03:30N 43°33' W 005°42'0 0.0
2017-Apr-12 03:00N 43°33' W 005°42'0 0.0
2017-Apr-12 02:30N 43°33' W 005°42'0 0.0
2017-Apr-12 02:00N 43°33' W 005°42'0 0.0
2017-Apr-12 01:30N 43°33' W 005°42'0 0.0
2017-Apr-12 00:59N 43°33' W 005°42'0 0.0
2017-Apr-12 00:30N 43°33' W 005°42'0 0.0
2017-Apr-12 00:00N 43°33' W 005°42'0 0.0
2017-Apr-11 23:29N 43°33' W 005°42'0 0.0
2017-Apr-11 23:00N 43°33' W 005°42'0 0.0
2017-Apr-11 22:30N 43°33' W 005°42'0 0.0
2017-Apr-11 22:00N 43°33' W 005°42'0 0.0
2017-Apr-11 20:29N 43°33' W 005°42'0 0.0
2017-Apr-11 20:00N 43°33' W 005°42'0 0.0
2017-Apr-11 19:30N 43°33' W 005°42'0 0.0
2017-Apr-11 19:00N 43°33' W 005°42'0 0.0
2017-Apr-11 18:30N 43°33' W 005°42'0 0.0
2017-Apr-11 17:59N 43°33' W 005°42'0 0.0
2017-Apr-11 17:28N 43°33' W 005°42'0 0.0
2017-Apr-11 17:00N 43°33' W 005°42'0 0.0
2017-Apr-11 16:28N 43°33' W 005°42'0 0.0
2017-Apr-11 12:30N 43°33' W 005°42'14 2.6
2017-Apr-11 07:08N 43°38' W 005°24'1 1.0
2017-Apr-11 05:51N 43°38' W 005°22'2 5.8
2017-Apr-11 05:29N 43°37' W 005°25'3 6.6
2017-Apr-11 04:58N 43°36' W 005°30'3 6.5
2017-Apr-11 04:26N 43°35' W 005°34'3 6.5
2017-Apr-11 04:01N 43°34' W 005°38'3 6.1
2017-Apr-11 03:30N 43°33' W 005°42'0 0.0
2017-Apr-11 03:00N 43°33' W 005°42'0 0.0
2017-Apr-11 02:30N 43°33' W 005°42'0 0.0
2017-Apr-11 02:00N 43°33' W 005°42'0 0.0
2017-Apr-11 01:30N 43°33' W 005°42'0 0.0
2017-Apr-11 01:00N 43°33' W 005°42'0 0.0
2017-Apr-11 00:30N 43°33' W 005°42'0 0.0
2017-Apr-11 00:00N 43°33' W 005°42'0 0.0
2017-Apr-10 22:04N 43°33' W 005°42'0 0.0
2017-Apr-10 21:45N 43°33' W 005°42'0 0.0
2017-Apr-10 21:05N 43°33' W 005°42'0 0.0
2017-Apr-10 20:55N 43°33' W 005°42'0 0.0
2017-Apr-10 20:30N 43°33' W 005°42'0 0.0
2017-Apr-10 20:00N 43°33' W 005°42'0 0.0
2017-Apr-10 19:30N 43°33' W 005°42'0 0.0
2017-Apr-10 19:00N 43°33' W 005°42'0 0.1
2017-Apr-10 18:02N 43°33' W 005°42'0 0.0
2017-Apr-10 17:33N 43°33' W 005°42'0 0.0
2017-Apr-10 17:28N 43°33' W 005°42'3 5.6
2017-Apr-10 16:59N 43°36' W 005°42'5 9.2
2017-Apr-10 16:27N 43°39' W 005°47'  
2017-Apr-07 07:41N 43°37' W 005°24'2 0.7
2017-Apr-07 05:10N 43°38' W 005°26'3 7.5
2017-Apr-07 04:49N 43°37' W 005°29'2 7.5
2017-Apr-07 04:30N 43°36' W 005°32'4 7.4
2017-Apr-07 04:00N 43°35' W 005°37'4 7.2
2017-Apr-07 03:30N 43°33' W 005°42'0 0.2
2017-Apr-07 03:00N 43°33' W 005°42'0 0.0
2017-Apr-07 02:30N 43°33' W 005°42'0 0.0
2017-Apr-07 02:00N 43°33' W 005°42'0 0.0
2017-Apr-07 01:30N 43°33' W 005°42'0 0.0
2017-Apr-07 01:00N 43°33' W 005°42'0 0.0
2017-Apr-07 00:30N 43°33' W 005°42'0 0.0
2017-Apr-07 00:00N 43°33' W 005°42'0 0.0
2017-Apr-06 23:26N 43°33' W 005°42'0 0.0
2017-Apr-06 23:00N 43°33' W 005°42'0 0.0
2017-Apr-06 22:30N 43°33' W 005°42'0 0.0
2017-Apr-06 22:00N 43°33' W 005°42'0 0.0
2017-Apr-06 20:35N 43°33' W 005°42'0 0.0
2017-Apr-06 20:30N 43°33' W 005°42'0 0.0
2017-Apr-06 20:00N 43°33' W 005°42'0 0.0
2017-Apr-06 19:27N 43°33' W 005°42'0 0.0
2017-Apr-06 19:00N 43°33' W 005°42'0 0.0
2017-Apr-06 18:30N 43°33' W 005°42'0 0.0
2017-Apr-06 18:00N 43°33' W 005°42'0 0.0
2017-Apr-06 17:29N 43°33' W 005°42'0 0.0
2017-Apr-06 16:57N 43°33' W 005°42'0 0.0
2017-Apr-06 16:28N 43°33' W 005°42'0 0.0
2017-Apr-06 16:00N 43°33' W 005°42'0 0.0
2017-Apr-06 15:30N 43°33' W 005°42'0 0.0
2017-Apr-06 14:58N 43°33' W 005°42'0 0.0
2017-Apr-06 14:29N 43°33' W 005°42'0 0.0
2017-Apr-06 13:30N 43°33' W 005°42'0 0.2
2017-Apr-06 13:00N 43°33' W 005°42'0 0.0
2017-Apr-06 12:30N 43°33' W 005°42'0 0.0
2017-Apr-06 12:00N 43°33' W 005°42'0 0.0
2017-Apr-06 11:30N 43°33' W 005°42'13 3.3
2017-Apr-06 07:33N 43°39' W 005°25'3 1.2
2017-Apr-06 04:55N 43°37' W 005°29'3 7.4
2017-Apr-06 04:30N 43°36' W 005°33'4 7.1
2017-Apr-06 04:00N 43°35' W 005°38'3 6.6
2017-Apr-06 03:30N 43°33' W 005°42'0 0.1
2017-Apr-06 03:00N 43°33' W 005°42'0 0.0
2017-Apr-06 02:30N 43°33' W 005°42'0 0.0
2017-Apr-06 02:00N 43°33' W 005°42'0 0.0
2017-Apr-06 01:30N 43°33' W 005°42'0 0.0
2017-Apr-06 01:00N 43°33' W 005°42'0 0.0
2017-Apr-06 00:29N 43°33' W 005°42'0 0.0
2017-Apr-06 00:00N 43°33' W 005°42'0 0.0
2017-Apr-05 23:30N 43°33' W 005°42'0 0.0
2017-Apr-05 19:38N 43°33' W 005°42'0 0.0
2017-Apr-05 19:30N 43°33' W 005°42'0 0.0
2017-Apr-05 19:00N 43°33' W 005°42'0 0.0
2017-Apr-05 18:30N 43°33' W 005°42'0 0.0
2017-Apr-05 17:57N 43°33' W 005°42'0 0.0
2017-Apr-05 17:28N 43°33' W 005°42'0 0.0
2017-Apr-05 16:59N 43°33' W 005°42'0 0.0
2017-Apr-05 16:30N 43°33' W 005°42'0 0.0
2017-Apr-05 15:59N 43°33' W 005°42'0 0.0
2017-Apr-05 15:30N 43°33' W 005°42'0 0.0
2017-Apr-05 14:59N 43°33' W 005°42'0 0.0
2017-Apr-05 14:29N 43°33' W 005°42'0 0.0
2017-Apr-05 13:27N 43°33' W 005°42'0 0.0
2017-Apr-05 13:00N 43°33' W 005°42'13 3.7
2017-Apr-05 09:30N 43°38' W 005°25'0 0.1
2017-Apr-05 08:58N 43°38' W 005°25'0 0.3
2017-Apr-05 07:33N 43°39' W 005°25'0 1.2
2017-Apr-05 07:30N 43°39' W 005°25'2 0.7
2017-Apr-05 05:14N 43°37' W 005°26'3 8.0
2017-Apr-05 04:51N 43°36' W 005°30'3 7.7
2017-Apr-05 04:30N 43°36' W 005°33'4 7.6
2017-Apr-05 04:00N 43°34' W 005°38'3 5.7
2017-Apr-05 03:30N 43°33' W 005°42'0 0.0
2017-Apr-05 03:00N 43°33' W 005°42'0 0.0
2017-Apr-05 02:30N 43°33' W 005°42'0 0.0
2017-Apr-05 02:00N 43°33' W 005°42'0 0.0
2017-Apr-05 01:30N 43°33' W 005°42'0 0.0
2017-Apr-05 01:00N 43°33' W 005°42'0 0.0
2017-Apr-05 00:30N 43°33' W 005°42'0 0.0
2017-Apr-05 00:00N 43°33' W 005°42'0 0.0
2017-Apr-04 23:29N 43°33' W 005°42'0 0.0
2017-Apr-04 23:00N 43°33' W 005°42'0 0.0
2017-Apr-04 22:30N 43°33' W 005°42'0 0.0
2017-Apr-04 22:00N 43°33' W 005°42'0 0.0
2017-Apr-04 20:14N 43°33' W 005°42'0 0.0
2017-Apr-04 20:00N 43°33' W 005°42'0 0.0
2017-Apr-04 19:30N 43°33' W 005°42'0 0.0
2017-Apr-04 18:59N 43°33' W 005°42'0 0.0
2017-Apr-04 18:30N 43°33' W 005°42'0 0.0
2017-Apr-04 17:58N 43°33' W 005°42'0 0.0
2017-Apr-04 17:30N 43°33' W 005°42'0 0.0
2017-Apr-04 17:00N 43°33' W 005°42'0 0.0
2017-Apr-04 16:30N 43°33' W 005°42'0 0.2
2017-Apr-04 16:00N 43°33' W 005°42'0 0.0
2017-Apr-04 15:30N 43°33' W 005°42'0 0.0
2017-Apr-04 15:00N 43°33' W 005°42'13 2.5
2017-Apr-04 10:02N 43°39' W 005°26'0 0.3
2017-Apr-04 10:00N 43°39' W 005°26'0 0.3
2017-Apr-04 09:26N 43°39' W 005°27'2 3.9
2017-Apr-04 08:56N 43°40' W 005°29'4 1.2
2017-Apr-04 05:18N 43°38' W 005°24'2 8.0
2017-Apr-04 05:00N 43°37' W 005°27'4 7.9
2017-Apr-04 04:30N 43°36' W 005°33'4 7.8
2017-Apr-04 04:00N 43°35' W 005°38'3 6.0
2017-Apr-04 03:29N 43°33' W 005°42'0 0.0
2017-Apr-04 03:00N 43°33' W 005°42'0 0.0
2017-Apr-04 02:30N 43°33' W 005°42'0 0.0
2017-Apr-04 01:59N 43°33' W 005°42'0 0.0
2017-Apr-04 01:29N 43°33' W 005°42'0 0.0
2017-Apr-04 00:56N 43°33' W 005°42'0 0.0
2017-Apr-04 00:29N 43°33' W 005°42'0 0.0
2017-Apr-03 23:57N 43°33' W 005°42'0 0.0
2017-Apr-03 23:27N 43°33' W 005°42'0 0.0
2017-Apr-03 22:52N 43°33' W 005°42'0 0.0
2017-Apr-03 17:27N 43°33' W 005°42'0 0.0
2017-Apr-03 16:58N 43°33' W 005°42'16 1.7
2017-Apr-03 07:34N 43°41' W 005°22'  

Dump ship's entire track history